Historyczne dane pomiarowe

Dodano dane terminowe – wersja testowa.

Dane z okresu 1951-2019

Wersja bazy: 1.34 [2019-03-16, lista zmian], aktualizacja planowana na 2019-04-15

Dane meteo z obszaru Polski uzyskane na podstawie danych udostępnionych przez Instytut Meteorologii i Gospodarki Wodnej – Państwowy Instytut Badawczy.

 

Wybierz Datę:    

       

TemperaturaWilgotnośćWiatrCiśnienieOpadyŚniegCzas trwania zjawisk
 Stacja t tx tn tng RH VA  wxwx mslp ppp RRR   cm mm wxwxwxwxwxwxwx
1997-10-11 12.2 15.5 8.1 6.3 80.5- 6.7 3.3---- 0.0------------
1997-10-12 9.5 12.4 6.3 3.3 78.3- 8.0 3.0---- 5.2------------
1997-10-13 7.4 10.9 5.1 5.1 82.8- 7.7 3.3---- 0.3------------
1997-10-14 3.8 8.9 0.0 -2.9 88.0- 6.3 2.3---- 4.4------------
1997-10-15 3.4 5.0 1.9 1.9 93.3- 8.0 3.0---- 4.4------------
1997-10-16 0.9 4.2 -2.0 -6.0 93.8- 7.0 0.7---- 5.2------------
1997-10-17 2.6 5.0 0.6 -1.9 90.5- 8.0 0.7---- 0.0------------
1997-10-18 1.1 9.1 -3.5 -7.2 77.3- 0.0 0.3---- 0.0------------
1997-10-19 5.0 10.4 1.4 -4.0 77.8- 3.3 3.0---- 0.0------------
1997-10-20 7.6 12.1 4.8 1.7 67.8- 2.7 2.3---- 1.0------------
1997-10-21 2.2 7.0 -2.1 -2.9 86.0- 5.3 3.0---- 0.2------------
1997-10-22 -0.9 7.5 -7.5-11.2 82.5- 2.7 1.3---- 0.0------------
1997-10-23 2.9 8.0 -0.5 -6.0 75.3- 1.0 2.0---- 0.0------------
1997-10-24 1.5 8.5 -2.0 -2.9 86.8- 4.3 4.3---- 1.0------------
1997-10-25 -1.0 3.0 -6.0-11.2 92.3- 5.0 2.7---- 5.4------------
1997-10-26 -2.8 2.0 -5.5 -9.2 92.3- 6.0 1.7---- 0.8-- 5---------
1997-10-27 -4.2 0.5 -9.5-13.1 91.5- 8.0 1.7---- 2.2-- 6---------
1997-10-28 -4.2 -2.0 -5.5-10.2 85.0- 7.3 1.3---- 0.0-- 7---------
1997-10-29 -2.9 2.4 -9.5-13.2 91.0- 7.0 1.7---- 0.0-- 6---------
1997-10-30 1.2 3.0 -0.5 -1.9 90.0- 8.0 1.3---- 0.0-- 4---------
1997-10-31 1.7 8.0 -1.5 -1.9 83.8- 2.7 0.7---- 0.0------------
1997-11-01 -1.2 11.5 -6.0 -9.7 79.0- 0.0 0.3---- 0.0------------
1997-11-02 0.9 8.5 -6.0 -9.6 81.5- 1.0 2.3---- 0.4------------
1997-11-03 2.1 4.8 -0.5 -4.0 84.3- 5.3 5.0---- 1.4------------
1997-11-04 -2.4 1.5 -5.0 -9.8 91.5- 4.3 2.0---- 0.1------------
1997-11-05 -2.1 6.6 -9.1-11.2 79.8- 1.0 2.0---- 0.0------------
1997-11-06 7.8 11.4 2.1 -1.9 78.0- 4.3 12.3---- 0.0------------
1997-11-07 13.0 15.3 9.7 6.3 60.0- 5.7 8.7---- 0.3------------
1997-11-08 15.6 19.6 11.2 9.3 87.8- 2.7 4.7---- 1.0------------
1997-11-09 12.9 18.5 8.2 6.3 87.0- 7.0 3.0---- 9.5------------
218.6 ms

 

Źródłem pochodzenia danych jest Instytut Meteorologii i Gospodarki Wodnej – Państwowy Instytut Badawczy. Dane Instytutu Meteorologii i Gospodarki Wodnej – Państwowego Instytutu Badawczego zostały przetworzone.

Dane źródłowe można odnaleźć na stronie https://dane.imgw.pl